METAR AND TAF INFORMATION
METAR FOR LIMF
ADDS - METARS form results

(2202 UTC 04 August 2021)
Data provider http://aviationweather.gov/metar/data/
 
METAR text: LIMF 042150Z VRB02KT 7000 SCT008 18/18 Q1009
Conditions at: LIMF (TORINO/CASELLE , IT) observed 2150 UTC 04 August 2021
Temperature: 18.0°C (64°F)
Dewpoint: 18.0°C (64°F) [RH = 100%]
Pressure (altimeter): 29.79 inches Hg (1009.0 mb)
Winds: variable direction winds at 2 MPH (2 knots; 1.0 m/s)
Visibility: 4 miles ( 7 km)
Ceiling: at least 12,000 feet AGL
Clouds: scattered clouds at 800 feet AGL
Weather: no significant weather observed at this time

METAR text: LIMF 042120Z 01003KT 310V040 9999 SCT010 19/18 Q1010
Conditions at: LIMF (TORINO/CASELLE , IT) observed 2120 UTC 04 August 2021
Temperature: 19.0°C (66°F)
Dewpoint: 18.0°C (64°F) [RH = 94%]
Pressure (altimeter): 29.82 inches Hg (1010.0 mb)
Winds: from the N (10 degrees) at 3 MPH (3 knots; 1.5 m/s)
Visibility: 6 or more miles (10+ km)
Ceiling: at least 12,000 feet AGL
Clouds: scattered clouds at 1000 feet AGL
Weather: no significant weather observed at this time

Forecast for: LIMF (TORINO/CASELLE , IT)
Text: TAF LIMF 041700Z 0418/0518 VRB05KT 9999 SCT030
Forecast period: 1800 UTC 04 August 2021 to 1800 UTC 05 August 2021
Forecast type: FROM: standard forecast or significant change
Winds: variable direction winds at 6 MPH (5 knots; 2.6 m/s)
Visibility: 6 or more miles (10+ km)
Ceiling: at least 12,000 feet AGL
Clouds: scattered clouds at 3000 feet AGL
Weather: no significant weather forecast for this period
Text: TEMPO 0418/0422 4000 TSRA
Forecast period: 1800 to 2200 UTC 04 August 2021
Forecast type: TEMPORARY: The following changes expected for less than half the time period
Visibility: 2.49 miles (4.01 km)
Ceiling: unknown
Clouds: missing
Weather: TSRA  (rain associated with thunderstorm(s))
Text: TEMPO 0423/0505 4000 BR
Forecast period: 2300 UTC 04 August 2021 to 0500 UTC 05 August 2021
Forecast type: TEMPORARY: The following changes expected for less than half the time period
Visibility: 2.49 miles (4.01 km)
Ceiling: unknown
Clouds: missing
Weather: BR  (mist)

 AIRPORT MAP

 RUNWAY INFORMATION
Runway 18 Runway length 10827 ft Runway width 197 ft
Runway elevation 981 ft Runway displaced threshold 2378 ft Runway heading 183
Runway 36 Runway length 10827 ft Runway width 197 ft
Runway elevation 933 ft Runway displaced threshold 1148 ft Runway heading 3

 AIRPORT FREQUENCIES
Type APP Name APP Frequency 129.275 MHZ
Type APP Name APP Frequency 23.44 MHZ
Type ATIS Name ATIS Frequency 120.475 MHZ
Type GND Name GND Frequency 121.7 MHZ
Type TWR Name TWR Frequency 118.5 MHZ

 AIRPORT NEAR NAVIGATION AIDS
Type TACAN Name Caselle Frequency 109500 KHZ
Type NDB Name Caselle Frequency 357 KHZ
Type VOR-DME Name Caselle Frequency 116750 KHZ
Type VOR-DME Name Torino Frequency 114500 KHZ
Type NDB Name Torino Frequency 393 KHZ





Powered by Virtual Airlines Manager

Maps by Rafael Santos